Time;durP1;ratioP1;P1;durP2;ratioP2;P2;SDS_P1;SDS_P2;PMS_P1;PMS_P2;Temp;Humidity;BMP_temperature;BMP_pressure;BME280_temperature;BME280_humidity;BME280_pressure;Samples;Min_cycle;Max_cycle;Signal;HPM_P1;HPM_P2
2022/03/16 00:00:39;;;;;;;22.17;13.37;;;9.80;99.90;;;;;;4084425;29;20619;-92
2022/03/16 00:02:40;;;;;;;19.47;11.90;;;9.60;99.90;;;;;;4068762;29;20176;-92
2022/03/16 00:04:41;;;;;;;20.87;13.23;;;9.40;99.90;;;;;;4068439;29;20220;-92
2022/03/16 00:06:42;;;;;;;21.27;13.47;;;9.30;99.90;;;;;;4068863;29;20669;-92
2022/03/16 00:08:42;;;;;;;23.37;13.80;;;9.10;99.90;;;;;;4069369;29;20183;-92
2022/03/16 00:10:43;;;;;;;23.10;14.23;;;9.10;99.90;;;;;;4067859;29;20172;-93
2022/03/16 00:12:44;;;;;;;23.40;14.23;;;9.30;99.90;;;;;;4068741;29;20545;-94
2022/03/16 00:14:45;;;;;;;21.83;14.47;;;9.60;99.90;;;;;;4069399;29;20192;-94
2022/03/16 00:16:46;;;;;;;25.30;15.03;;;9.70;99.90;;;;;;4084479;29;20186;-94
2022/03/16 00:18:47;;;;;;;23.97;14.40;;;9.70;99.90;;;;;;4069136;29;20183;-95
2022/03/16 00:20:48;;;;;;;24.50;14.60;;;9.80;99.90;;;;;;4085038;29;20176;-94
2022/03/16 00:22:49;;;;;;;22.30;14.67;;;9.60;99.90;;;;;;4069261;29;20183;-94
2022/03/16 00:24:49;;;;;;;25.73;14.63;;;9.40;99.90;;;;;;4068533;29;20758;-96
2022/03/16 00:26:50;;;;;;;22.27;15.30;;;8.80;99.90;;;;;;4084390;29;20176;-92
2022/03/16 00:28:51;;;;;;;21.97;14.27;;;8.50;99.90;;;;;;4084371;29;20191;-91
2022/03/16 00:30:52;;;;;;;20.77;14.00;;;8.40;99.90;;;;;;4068803;29;20333;-92
2022/03/16 00:32:52;;;;;;;19.63;13.70;;;8.30;99.90;;;;;;4068249;29;20181;-92
2022/03/16 00:34:53;;;;;;;21.47;13.43;;;8.30;99.90;;;;;;4084364;29;20267;-94
2022/03/16 00:36:55;;;;;;;19.00;13.83;;;8.40;99.90;;;;;;4069129;29;20784;-91
2022/03/16 00:38:55;;;;;;;21.23;14.33;;;8.70;99.90;;;;;;4068652;29;20168;-93
2022/03/16 00:40:56;;;;;;;21.87;13.77;;;8.80;99.90;;;;;;4068275;29;20185;-93
2022/03/16 00:42:58;;;;;;;21.10;14.10;;;8.80;99.90;;;;;;4068609;29;20203;-93
2022/03/16 00:44:59;;;;;;;19.40;14.20;;;9.00;99.90;;;;;;4083929;29;20636;-92
2022/03/16 00:47:03;;;;;;;22.27;14.90;;;9.50;99.90;;;;;;4084196;29;20790;-95
2022/03/16 00:49:04;;;;;;;24.37;15.93;;;9.80;99.90;;;;;;4085511;29;20187;-94
2022/03/16 00:51:07;;;;;;;26.67;16.30;;;9.90;99.90;;;;;;4069515;29;20256;-95
2022/03/16 00:53:08;;;;;;;24.13;16.20;;;9.70;99.90;;;;;;4085659;29;20176;-95
2022/03/16 00:55:09;;;;;;;24.00;16.60;;;9.40;99.90;;;;;;4069535;29;20192;-96
2022/03/16 00:57:10;;;;;;;25.00;16.43;;;9.40;99.90;;;;;;4083780;29;20231;-95
2022/03/16 00:59:10;;;;;;;27.07;17.80;;;9.20;99.90;;;;;;4069049;29;20176;-93
2022/03/16 01:01:11;;;;;;;27.73;17.47;;;9.30;99.90;;;;;;4084738;29;20656;-95
2022/03/16 01:03:12;;;;;;;28.10;18.40;;;9.30;99.90;;;;;;4067978;29;20537;-94
2022/03/16 01:05:13;;;;;;;29.13;18.53;;;9.00;99.90;;;;;;4068879;29;20204;-95
2022/03/16 01:07:14;;;;;;;29.47;18.07;;;9.00;99.90;;;;;;4084772;29;20176;-96
2022/03/16 01:09:14;;;;;;;30.50;18.23;;;9.10;99.90;;;;;;4069023;29;20192;-95
2022/03/16 01:11:15;;;;;;;28.13;19.03;;;9.10;99.90;;;;;;4085618;29;20171;-94
2022/03/16 01:13:16;;;;;;;28.47;18.53;;;9.00;99.90;;;;;;4068518;29;20184;-95
2022/03/16 01:15:23;;;;;;;26.60;17.30;;;8.90;99.90;;;;;;4070079;29;20203;-95
2022/03/16 01:17:24;;;;;;;35.20;18.80;;;8.70;99.90;;;;;;4068154;29;20271;-94
2022/03/16 01:19:25;;;;;;;33.60;18.10;;;8.80;99.90;;;;;;4069299;29;20183;-96
2022/03/16 01:21:26;;;;;;;29.93;18.50;;;8.70;99.90;;;;;;4087667;29;20194;-94
2022/03/16 01:23:27;;;;;;;30.20;18.80;;;8.90;99.90;;;;;;4070614;29;20176;-95
2022/03/16 01:25:28;;;;;;;26.60;18.50;;;8.70;99.90;;;;;;4073240;29;20212;-95
2022/03/16 01:27:29;;;;;;;25.53;18.30;;;8.60;99.90;;;;;;4071712;29;20180;-96
2022/03/16 01:29:29;;;;;;;28.10;19.00;;;8.30;99.90;;;;;;4073078;29;20665;-95
2022/03/16 01:31:30;;;;;;;31.73;19.50;;;8.20;99.90;;;;;;4070693;29;20183;-95
2022/03/16 01:33:31;;;;;;;31.33;19.47;;;8.30;99.90;;;;;;4071937;29;20591;-96
2022/03/16 01:35:32;;;;;;;31.57;18.63;;;8.30;99.90;;;;;;4073292;29;20367;-96
2022/03/16 01:37:33;;;;;;;27.77;18.83;;;8.30;99.90;;;;;;4070748;29;20192;-94
2022/03/16 01:39:34;;;;;;;33.13;19.20;;;8.20;99.90;;;;;;4086578;29;20237;-95
2022/03/16 01:41:35;;;;;;;28.87;18.53;;;7.90;99.90;;;;;;4088411;29;20263;-94
2022/03/16 01:43:36;;;;;;;29.90;20.07;;;8.00;99.90;;;;;;4072485;29;20204;-95
2022/03/16 01:45:43;;;;;;;29.10;18.90;;;8.00;99.90;;;;;;4070492;29;20212;-96
2022/03/16 01:47:43;;;;;;;28.87;18.10;;;7.90;99.90;;;;;;4087349;29;20176;-96
2022/03/16 01:49:45;;;;;;;25.17;17.70;;;7.60;99.90;;;;;;4087637;29;20183;-95
2022/03/16 01:51:46;;;;;;;30.83;18.63;;;7.60;99.90;;;;;;4071020;29;20169;-94
2022/03/16 01:53:48;;;;;;;29.47;17.37;;;7.50;99.90;;;;;;4074059;29;20183;-95
2022/03/16 01:55:49;;;;;;;30.17;17.80;;;7.50;99.90;;;;;;4072199;29;20227;-94
2022/03/16 01:57:50;;;;;;;25.33;16.93;;;7.60;99.90;;;;;;4071975;29;20184;-94
2022/03/16 01:59:51;;;;;;;31.67;17.57;;;7.70;99.90;;;;;;4072392;29;20172;-94
2022/03/16 02:01:52;;;;;;;24.53;16.57;;;7.60;99.90;;;;;;4086637;29;20167;-95
2022/03/16 02:03:52;;;;;;;25.07;17.43;;;7.90;99.90;;;;;;4070480;29;20250;-95
2022/03/16 02:05:54;;;;;;;25.93;17.63;;;8.30;99.90;;;;;;4071667;29;20208;-94
2022/03/16 02:07:56;;;;;;;28.83;18.53;;;8.50;99.90;;;;;;4071241;29;20160;-95
2022/03/16 02:10:00;;;;;;;26.00;18.97;;;8.80;99.90;;;;;;4071141;29;20219;-96
2022/03/16 02:12:01;;;;;;;25.57;18.37;;;8.40;99.90;;;;;;4072739;29;20176;-94
2022/03/16 02:14:01;;;;;;;26.23;17.13;;;8.10;99.90;;;;;;4070582;29;20671;-96
2022/03/16 02:16:03;;;;;;;30.87;18.40;;;7.90;99.90;;;;;;4086159;29;20195;-92
2022/03/16 02:18:05;;;;;;;29.63;18.87;;;8.20;99.90;;;;;;4069888;29;20176;-91
2022/03/16 02:20:07;;;;;;;29.97;20.30;;;8.60;99.90;;;;;;4070116;29;20208;-94
2022/03/16 02:22:13;;;;;;;28.20;19.77;;;8.40;99.90;;;;;;4085799;29;20262;-92
2022/03/16 02:24:14;;;;;;;34.60;19.40;;;8.10;99.90;;;;;;4070038;29;20271;-91
2022/03/16 02:26:15;;;;;;;31.63;17.80;;;8.00;99.90;;;;;;4085465;29;20198;-92
2022/03/16 02:28:16;;;;;;;26.93;18.27;;;8.10;99.90;;;;;;4069812;29;20176;-94
2022/03/16 02:30:17;;;;;;;28.20;18.47;;;8.50;99.90;;;;;;4085942;29;20255;-94
2022/03/16 02:32:17;;;;;;;27.97;18.03;;;8.60;99.90;;;;;;4071109;29;20176;-96
2022/03/16 02:34:18;;;;;;;27.27;17.97;;;8.50;99.90;;;;;;4071219;29;20180;-95
2022/03/16 02:36:19;;;;;;;28.73;19.47;;;8.00;99.90;;;;;;4086226;29;20191;-96
2022/03/16 02:38:20;;;;;;;30.27;18.80;;;8.00;99.90;;;;;;4086578;29;20192;-96
2022/03/16 02:40:21;;;;;;;28.50;18.33;;;7.70;99.90;;;;;;4070292;29;20636;-94
2022/03/16 02:42:22;;;;;;;27.07;18.27;;;7.50;99.90;;;;;;4069507;29;20172;-96
2022/03/16 02:44:23;;;;;;;24.87;17.53;;;7.20;99.90;;;;;;4069460;29;20307;-91
2022/03/16 02:46:24;;;;;;;26.50;17.20;;;7.00;99.90;;;;;;4069037;29;20669;-92
2022/03/16 02:48:25;;;;;;;23.70;16.60;;;6.80;99.90;;;;;;4084627;29;20207;-92
2022/03/16 02:50:25;;;;;;;24.97;15.87;;;6.70;99.90;;;;;;4084518;29;20183;-92
2022/03/16 02:52:26;;;;;;;25.07;15.33;;;6.60;99.90;;;;;;4069052;29;20179;-95
2022/03/16 02:54:27;;;;;;;22.07;15.20;;;6.40;99.90;;;;;;4069265;29;20168;-94
2022/03/16 02:56:28;;;;;;;20.93;14.60;;;6.40;99.90;;;;;;4069348;29;20206;-96
2022/03/16 02:58:29;;;;;;;24.97;15.03;;;6.40;99.90;;;;;;4070529;29;20227;-96
2022/03/16 03:00:30;;;;;;;19.90;14.57;;;6.40;99.90;;;;;;4069787;29;20172;-93
2022/03/16 03:02:31;;;;;;;20.50;14.63;;;6.40;99.90;;;;;;4069264;29;20705;-91
2022/03/16 03:04:31;;;;;;;20.63;15.20;;;6.40;99.90;;;;;;4069105;29;20212;-92
2022/03/16 03:06:32;;;;;;;20.77;14.90;;;6.50;99.90;;;;;;4068711;29;20192;-92
2022/03/16 03:08:33;;;;;;;22.90;14.67;;;6.50;99.90;;;;;;4084665;29;20263;-92
2022/03/16 03:10:34;;;;;;;20.40;14.37;;;6.40;99.90;;;;;;4084199;29;20613;-93
2022/03/16 03:12:35;;;;;;;20.47;13.87;;;6.40;99.90;;;;;;4068488;29;20650;-92
2022/03/16 03:14:36;;;;;;;19.73;13.77;;;6.40;99.90;;;;;;4084271;29;20176;-91
2022/03/16 03:16:37;;;;;;;19.57;14.80;;;6.40;99.90;;;;;;4068722;29;20545;-91
2022/03/16 03:18:37;;;;;;;20.47;13.83;;;6.40;99.90;;;;;;4068645;29;20180;-93
2022/03/16 03:20:38;;;;;;;19.73;14.33;;;6.40;99.90;;;;;;4068728;29;20180;-93
2022/03/16 03:22:42;;;;;;;18.93;13.70;;;6.50;99.90;;;;;;4084460;29;20184;-92
2022/03/16 03:24:44;;;;;;;19.30;14.17;;;6.50;99.90;;;;;;4068227;29;20212;-92
2022/03/16 03:26:45;;;;;;;22.67;14.23;;;6.50;99.90;;;;;;4068457;29;20179;-92
2022/03/16 03:28:46;;;;;;;21.03;14.47;;;6.60;99.90;;;;;;4068506;29;20179;-92
2022/03/16 03:30:47;;;;;;;20.00;13.97;;;6.70;99.90;;;;;;4084121;29;20191;-93
2022/03/16 03:32:47;;;;;;;18.17;13.60;;;6.80;99.90;;;;;;4068377;29;20180;-93
2022/03/16 03:34:51;;;;;;;26.60;14.23;;;6.90;99.90;;;;;;4083946;29;20175;-92
2022/03/16 03:36:52;;;;;;;19.50;15.10;;;6.90;99.90;;;;;;4043829;29;1198246;-93
2022/03/16 03:38:52;;;;;;;21.43;14.63;;;7.10;99.90;;;;;;4069176;29;20212;-94
2022/03/16 03:40:53;;;;;;;20.67;13.67;;;7.10;99.90;;;;;;4068838;29;20189;-94
2022/03/16 03:42:54;;;;;;;20.43;14.53;;;7.00;99.90;;;;;;4068760;29;20184;-92
2022/03/16 03:44:55;;;;;;;19.67;14.00;;;7.10;99.90;;;;;;4068327;29;20208;-93
2022/03/16 03:46:55;;;;;;;18.20;14.00;;;7.10;99.90;;;;;;4068675;29;20188;-93
2022/03/16 03:48:56;;;;;;;21.97;13.90;;;7.10;99.90;;;;;;4084875;29;20628;-92
2022/03/16 03:50:57;;;;;;;19.00;13.83;;;7.20;99.90;;;;;;4069092;29;20732;-93
2022/03/16 03:52:57;;;;;;;20.57;13.67;;;7.20;99.90;;;;;;4069196;29;20187;-93
2022/03/16 03:54:58;;;;;;;19.63;13.40;;;7.30;99.90;;;;;;4084433;29;20211;-94
2022/03/16 03:56:59;;;;;;;20.10;14.40;;;7.40;99.90;;;;;;4068742;29;20182;-91
2022/03/16 03:59:00;;;;;;;19.33;14.03;;;7.40;99.90;;;;;;4084600;29;20186;-92
2022/03/16 04:01:01;;;;;;;18.20;14.20;;;7.60;99.90;;;;;;4068864;29;20172;-92
2022/03/16 04:03:02;;;;;;;19.97;13.83;;;7.80;99.90;;;;;;4068934;29;20184;-93
2022/03/16 04:05:03;;;;;;;22.03;14.43;;;8.00;99.90;;;;;;4068687;29;20212;-91
2022/03/16 04:07:04;;;;;;;18.23;14.00;;;7.80;99.90;;;;;;4084509;29;20199;-93
2022/03/16 04:09:05;;;;;;;19.53;13.63;;;7.80;99.90;;;;;;4069367;29;20172;-92
2022/03/16 04:11:07;;;;;;;21.67;14.10;;;7.70;99.90;;;;;;4068797;29;20241;-92
2022/03/16 04:13:07;;;;;;;19.30;12.90;;;7.50;99.90;;;;;;4084623;29;20187;-92
2022/03/16 04:15:09;;;;;;;18.20;13.00;;;7.40;99.90;;;;;;4084292;29;20624;-92
2022/03/16 04:17:09;;;;;;;19.03;13.00;;;7.20;99.90;;;;;;4068731;29;20206;-91
2022/03/16 04:19:10;;;;;;;15.47;12.63;;;7.10;99.90;;;;;;4068803;29;20207;-92
2022/03/16 04:21:11;;;;;;;19.27;13.60;;;7.10;99.90;;;;;;4068616;29;20191;-95
2022/03/16 04:23:12;;;;;;;18.13;12.93;;;7.10;99.90;;;;;;4101096;28;20226;-94
2022/03/16 04:25:13;;;;;;;18.70;13.07;;;7.20;99.90;;;;;;4084058;29;20211;-95
2022/03/16 04:27:14;;;;;;;18.67;12.83;;;7.20;99.90;;;;;;4069131;29;20172;-95
2022/03/16 04:29:14;;;;;;;21.03;13.70;;;7.20;99.90;;;;;;4069011;29;20645;-96
2022/03/16 04:31:15;;;;;;;18.40;13.43;;;7.20;99.90;;;;;;4084878;29;20265;-95
2022/03/16 04:33:16;;;;;;;19.23;13.50;;;7.20;99.90;;;;;;4069505;29;20191;-95
2022/03/16 04:35:17;;;;;;;17.30;12.73;;;7.10;99.90;;;;;;4069753;29;20680;-95
2022/03/16 04:37:17;;;;;;;19.43;13.80;;;7.30;99.90;;;;;;4084368;29;20259;-94
2022/03/16 04:39:18;;;;;;;18.73;13.57;;;7.30;99.90;;;;;;4068886;29;20534;-95
2022/03/16 04:41:20;;;;;;;19.67;14.30;;;7.30;99.90;;;;;;4068295;29;20244;-94
2022/03/16 04:43:21;;;;;;;18.03;13.83;;;7.30;99.90;;;;;;4083988;29;20184;-95
2022/03/16 04:45:22;;;;;;;19.00;13.67;;;7.30;99.90;;;;;;4068573;29;20223;-96
2022/03/16 04:47:22;;;;;;;19.43;14.10;;;7.40;99.90;;;;;;4068239;29;20180;-94
2022/03/16 04:49:23;;;;;;;17.23;12.77;;;7.40;99.90;;;;;;4068697;29;20180;-96
2022/03/16 04:51:24;;;;;;;19.03;13.67;;;7.30;99.90;;;;;;4068192;29;20180;-95
2022/03/16 04:53:25;;;;;;;21.33;13.77;;;7.30;99.90;;;;;;4069925;29;20241;-95
2022/03/16 04:55:25;;;;;;;19.33;13.37;;;7.20;99.90;;;;;;4068642;29;20317;-94
2022/03/16 04:57:26;;;;;;;16.97;13.70;;;7.20;99.90;;;;;;4085914;29;20175;-94
2022/03/16 04:59:27;;;;;;;18.60;13.40;;;7.20;99.90;;;;;;4089681;29;20247;-95
2022/03/16 05:01:28;;;;;;;17.93;13.37;;;7.20;99.90;;;;;;4071647;29;20172;-95
2022/03/16 05:03:28;;;;;;;17.30;12.57;;;7.20;99.90;;;;;;4087809;29;20176;-95
2022/03/16 05:05:30;;;;;;;17.00;13.17;;;7.10;99.90;;;;;;4071239;29;20203;-94
2022/03/16 05:07:31;;;;;;;20.03;13.67;;;7.10;99.90;;;;;;4071375;29;20182;-95
2022/03/16 05:09:31;;;;;;;19.60;14.03;;;7.10;99.90;;;;;;4071672;29;20211;-95
2022/03/16 05:11:34;;;;;;;17.83;13.63;;;7.10;99.90;;;;;;4072634;29;20188;-96
2022/03/16 05:13:35;;;;;;;19.97;14.43;;;7.20;99.90;;;;;;4071455;29;20181;-95
2022/03/16 05:15:35;;;;;;;22.57;14.50;;;7.20;99.90;;;;;;4087399;29;20242;-94
2022/03/16 05:17:37;;;;;;;19.83;14.83;;;7.20;99.90;;;;;;4071213;29;20172;-95
2022/03/16 05:19:38;;;;;;;18.70;14.10;;;7.30;99.90;;;;;;4071311;29;20176;-94
2022/03/16 05:21:39;;;;;;;19.70;14.23;;;7.30;99.90;;;;;;4070987;29;20176;-95
2022/03/16 05:23:40;;;;;;;22.17;14.67;;;7.20;99.90;;;;;;4071953;29;20569;-96
2022/03/16 05:25:41;;;;;;;20.33;15.00;;;7.20;99.90;;;;;;4070891;29;20270;-95
2022/03/16 05:27:42;;;;;;;19.60;14.37;;;7.20;99.90;;;;;;4070907;29;20243;-95
2022/03/16 05:29:43;;;;;;;20.70;14.70;;;7.30;99.90;;;;;;4073131;29;20168;-95
2022/03/16 05:31:44;;;;;;;20.60;14.67;;;7.20;99.90;;;;;;4071023;29;20191;-95
2022/03/16 05:33:45;;;;;;;20.50;14.93;;;7.40;99.90;;;;;;4056063;29;20174;-94
2022/03/16 05:35:45;;;;;;;19.33;14.03;;;7.30;99.90;;;;;;4071407;29;20295;-94
2022/03/16 05:37:48;;;;;;;19.23;14.37;;;7.30;99.90;;;;;;4070471;29;20227;-94
2022/03/16 05:39:48;;;;;;;19.97;15.37;;;7.20;99.90;;;;;;4070678;29;20180;-95
2022/03/16 05:41:49;;;;;;;20.00;14.57;;;7.20;99.90;;;;;;4071221;29;20281;-95
2022/03/16 05:43:50;;;;;;;20.10;14.60;;;7.10;99.90;;;;;;4071202;29;20215;-96
2022/03/16 05:45:51;;;;;;;22.13;15.63;;;7.20;99.90;;;;;;4086515;29;20188;-94
2022/03/16 05:47:52;;;;;;;21.03;15.13;;;7.10;99.90;;;;;;4087922;29;20251;-96
2022/03/16 05:49:56;;;;;;;19.93;15.20;;;7.20;99.90;;;;;;4072703;29;20219;-94
2022/03/16 05:51:57;;;;;;;21.93;15.30;;;7.10;99.90;;;;;;4086414;29;20182;-95
2022/03/16 05:53:57;;;;;;;21.23;15.30;;;7.10;99.90;;;;;;4074774;29;20223;-94
2022/03/16 05:55:58;;;;;;;23.67;15.00;;;7.20;99.90;;;;;;4071368;29;20210;-94
2022/03/16 05:57:59;;;;;;;24.00;15.93;;;7.20;99.90;;;;;;4072476;29;20254;-95
2022/03/16 05:59:59;;;;;;;21.37;15.73;;;7.20;99.90;;;;;;4088184;29;20187;-95
2022/03/16 06:02:02;;;;;;;21.57;15.33;;;7.10;99.90;;;;;;4087282;29;20262;-94
2022/03/16 06:04:03;;;;;;;20.37;14.70;;;7.10;99.90;;;;;;4086927;29;20211;-94
2022/03/16 06:06:05;;;;;;;20.83;15.30;;;7.10;99.90;;;;;;4086618;29;20628;-94
2022/03/16 06:08:06;;;;;;;21.60;14.80;;;7.10;99.90;;;;;;4071897;29;20255;-94
2022/03/16 06:10:08;;;;;;;23.23;16.03;;;7.00;99.90;;;;;;4070761;29;20217;-94
2022/03/16 06:12:09;;;;;;;21.43;14.97;;;7.00;99.90;;;;;;4086483;29;20179;-94
2022/03/16 06:14:10;;;;;;;20.47;14.93;;;6.90;99.90;;;;;;4086644;29;20172;-96
2022/03/16 06:16:10;;;;;;;21.33;15.50;;;6.80;99.90;;;;;;4070132;29;20259;-94
2022/03/16 06:18:12;;;;;;;23.90;15.93;;;6.80;99.90;;;;;;4070584;29;20172;-94
2022/03/16 06:20:13;;;;;;;23.23;15.93;;;6.90;99.90;;;;;;4070545;29;20648;-96
2022/03/16 06:22:14;;;;;;;21.10;15.63;;;7.20;99.90;;;;;;4071021;29;20172;-94
2022/03/16 06:24:15;;;;;;;20.47;15.40;;;7.20;99.90;;;;;;4070083;29;20220;-93
2022/03/16 06:26:16;;;;;;;23.07;16.17;;;7.20;99.90;;;;;;4070548;29;20196;-95
2022/03/16 06:28:17;;;;;;;25.07;16.53;;;7.00;99.90;;;;;;4086532;29;20175;-93
2022/03/16 06:30:18;;;;;;;24.03;15.93;;;7.00;99.90;;;;;;4070404;29;20168;-96
2022/03/16 06:32:19;;;;;;;22.17;15.87;;;6.90;99.90;;;;;;4070406;29;20574;-95
2022/03/16 06:34:20;;;;;;;23.07;16.60;;;6.90;99.90;;;;;;4086396;29;20182;-94
2022/03/16 06:36:20;;;;;;;26.53;16.03;;;6.90;99.90;;;;;;4088078;29;20202;-93
2022/03/16 06:38:21;;;;;;;24.57;17.20;;;7.00;99.90;;;;;;4077032;29;20283;-96
2022/03/16 06:40:22;;;;;;;22.47;16.07;;;7.00;99.90;;;;;;4077126;29;20200;-95
2022/03/16 06:42:29;;;;;;;21.43;15.87;;;7.00;99.90;;;;;;4062061;29;20192;-96
2022/03/16 06:44:45;;;;;;;24.47;16.07;;;7.00;99.90;;;;;;4093209;29;20211;-95
2022/03/16 06:46:48;;;;;;;23.87;16.03;;;7.00;99.90;;;;;;4077385;29;20267;-95
2022/03/16 06:48:53;;;;;;;25.37;15.87;;;7.00;99.90;;;;;;4093325;29;20183;-95
2022/03/16 06:50:55;;;;;;;23.47;16.70;;;7.00;99.90;;;;;;4076664;29;20172;-94
2022/03/16 06:52:58;;;;;;;23.80;16.13;;;7.00;99.90;;;;;;4108172;28;20204;-96
2022/03/16 06:54:59;;;;;;;25.13;15.93;;;7.00;99.90;;;;;;4092503;29;20552;-96
2022/03/16 06:57:02;;;;;;;27.30;16.27;;;7.00;99.90;;;;;;4076578;29;20236;-94
2022/03/16 06:59:03;;;;;;;23.27;15.97;;;7.10;99.90;;;;;;4075739;29;20256;-96
2022/03/16 07:01:04;;;;;;;24.33;15.30;;;7.10;99.90;;;;;;4075932;29;20209;-96
2022/03/16 07:03:06;;;;;;;23.67;15.97;;;7.20;99.90;;;;;;4076240;29;20185;-96
2022/03/16 07:05:11;;;;;;;21.90;14.90;;;7.30;99.90;;;;;;4092531;29;20223;-96
2022/03/16 07:07:12;;;;;;;20.07;14.30;;;7.50;99.90;;;;;;4077890;29;20200;-95
2022/03/16 07:09:19;;;;;;;23.03;15.97;;;7.50;99.90;;;;;;4077880;29;20181;-96
2022/03/16 07:11:20;;;;;;;25.37;15.07;;;7.70;99.90;;;;;;4076542;29;20187;-96
2022/03/16 07:13:21;;;;;;;21.17;15.57;;;7.80;99.90;;;;;;4076125;29;20176;-96
2022/03/16 07:15:24;;;;;;;23.13;14.43;;;7.80;99.90;;;;;;4076642;29;20192;-95
2022/03/16 07:17:26;;;;;;;21.50;14.60;;;7.80;99.90;;;;;;4090452;29;20180;-95
2022/03/16 07:19:29;;;;;;;20.70;14.17;;;7.80;99.90;;;;;;4074814;29;20323;-95
2022/03/16 07:22:07;;;;;;;22.43;14.57;;;7.90;99.90;;;;;;4101560;29;20160;-96
2022/03/16 07:24:48;;;;;;;;;;;;;;;;;;;;;
2022/03/16 07:30:21;;;;;;;20.07;14.20;;;8.10;99.90;;;;;;4135595;23;20233;-96
2022/03/16 07:32:45;;;;;;;;;;;;;;;;;;;;;
2022/03/16 07:34:51;;;;;;;23.10;13.77;;;8.10;99.90;;;;;;4114132;28;20183;-96
2022/03/16 07:36:56;;;;;;;21.07;13.83;;;8.10;99.90;;;;;;4083032;29;20184;-96
2022/03/16 07:39:45;;;;;;;20.97;14.47;;;8.20;99.90;;;;;;4086025;29;20188;-96
2022/03/16 07:42:08;;;;;;;21.27;14.20;;;8.40;99.90;;;;;;4083435;29;20180;-96
2022/03/16 07:45:10;;;;;;;25.63;14.40;;;8.60;99.90;;;;;;4096938;29;20229;-95
2022/03/16 07:47:45;;;;;;;19.73;14.23;;;8.90;99.90;;;;;;4099529;29;20167;-93
2022/03/16 07:50:00;;;;;;;17.87;12.73;;;8.90;99.90;;;;;;4100922;29;20168;-94
2022/03/16 07:55:11;;;;;;;20.10;14.23;;;9.10;99.90;;;;;;4096428;29;20169;-96
2022/03/16 07:57:25;;;;;;;19.77;12.90;;;9.50;99.90;;;;;;4090590;29;20189;-96
2022/03/16 07:59:45;;;;;;;18.40;13.73;;;9.50;99.90;;;;;;4060147;29;20194;-95
2022/03/16 08:02:10;;;;;;;18.97;13.27;;;9.60;99.90;;;;;;4081855;29;20188;-96
2022/03/16 08:04:43;;;;;;;18.93;12.87;;;10.20;99.90;;;;;;4099669;29;20219;-96
2022/03/16 08:06:47;;;;;;;18.60;12.87;;;9.90;99.90;;;;;;4065749;29;20610;-95
2022/03/16 08:09:39;;;;;;;;;;;;;;;;;;;;;
2022/03/16 08:12:09;;;;;;;17.83;12.93;;;10.10;99.90;;;;;;4113470;28;20186;-96
2022/03/16 08:14:27;;;;;;;17.27;12.73;;;10.30;99.90;;;;;;4096013;28;20199;-96
2022/03/16 08:16:48;;;;;;;22.07;13.17;;;10.20;99.90;;;;;;4096478;29;20247;-96
2022/03/16 08:19:15;;;;;;;19.87;12.93;;;10.20;99.90;;;;;;4077580;29;20184;-96
2022/03/16 08:21:52;;;;;;;19.80;12.30;;;10.50;99.90;;;;;;4094789;29;20194;-96
2022/03/16 08:24:16;;;;;;;16.57;12.47;;;10.50;99.90;;;;;;4079120;29;20591;-95
2022/03/16 08:26:34;;;;;;;19.73;12.75;;;10.50;99.90;;;;;;4075890;29;20675;-96
2022/03/16 08:29:16;;;;;;;19.90;12.30;;;10.50;99.90;;;;;;4079079;29;20660;-96
2022/03/16 08:31:31;;;;;;;;;;;;;;;;;;;;;
2022/03/16 08:33:35;;;;;;;20.23;12.20;;;10.80;99.90;;;;;;4098069;29;20179;-96
2022/03/16 08:36:11;;;;;;;17.02;11.95;;;11.10;99.90;;;;;;4098982;29;20187;-95
2022/03/16 08:38:43;;;;;;;;;;;;;;;;;;;;;
2022/03/16 08:41:01;;;;;;;19.65;12.18;;;12.20;99.90;;;;;;4087697;29;20186;-95
2022/03/16 08:43:43;;;;;;;15.65;11.90;;;12.50;99.90;;;;;;4101354;29;20178;-96
2022/03/16 08:46:16;;;;;;;16.90;11.77;;;12.70;99.90;;;;;;4104233;29;20229;-96
2022/03/16 08:48:43;;;;;;;16.40;11.85;;;12.40;99.90;;;;;;4102747;29;20258;-96
2022/03/16 08:51:34;;;;;;;18.50;12.40;;;12.90;99.90;;;;;;4101149;29;20837;-95
2022/03/16 08:58:25;;;;;;;19.33;11.60;;;12.60;99.90;;;;;;4067496;29;20181;-95
2022/03/16 09:01:00;;;;;;;19.13;12.40;;;12.50;99.90;;;;;;4096571;29;20687;-95
2022/03/16 09:03:23;;;;;;;18.02;12.02;;;12.50;99.90;;;;;;4087357;29;20192;-95
2022/03/16 09:05:30;;;;;;;19.73;11.52;;;12.30;99.90;;;;;;4098453;29;20287;-96
2022/03/16 09:07:38;;;;;;;16.92;11.93;;;12.50;99.90;;;;;;4100024;29;20278;-95
2022/03/16 09:10:03;;;;;;;18.20;11.25;;;12.30;99.90;;;;;;4099696;28;20180;-96
2022/03/16 09:12:29;;;;;;;;;;;;;;;;;;;;;
2022/03/16 09:14:31;;;;;;;16.40;12.18;;;12.10;99.90;;;;;;4080839;29;20191;-96
2022/03/16 09:16:56;;;;;;;18.20;12.15;;;12.10;99.90;;;;;;4081752;29;20188;-96
2022/03/16 09:19:15;;;;;;;21.60;12.10;;;12.30;99.90;;;;;;4082929;29;20541;-95
2022/03/16 09:21:20;;;;;;;17.25;11.98;;;12.20;99.90;;;;;;4084487;29;20208;-96
2022/03/16 09:23:30;;;;;;;16.20;11.77;;;12.10;99.90;;;;;;4081716;29;20172;-96
2022/03/16 09:25:43;;;;;;;19.95;12.73;;;12.20;99.90;;;;;;4082469;29;20259;-96
2022/03/16 09:27:58;;;;;;;18.92;12.95;;;12.50;99.90;;;;;;4083402;29;20235;-96
2022/03/16 09:30:21;;;;;;;17.95;11.48;;;12.50;99.90;;;;;;4095217;29;20225;-96
2022/03/16 09:32:23;;;;;;;16.17;12.32;;;12.10;99.90;;;;;;4083664;29;20188;-96
2022/03/16 09:34:24;;;;;;;17.83;12.05;;;11.90;99.90;;;;;;4063025;29;20185;-95
2022/03/16 09:36:27;;;;;;;16.25;12.10;;;11.80;99.90;;;;;;4096068;29;20563;-95
2022/03/16 09:38:31;;;;;;;20.08;13.00;;;11.80;99.90;;;;;;4094402;29;20180;-95
2022/03/16 09:40:36;;;;;;;19.30;12.73;;;12.10;99.90;;;;;;4077271;29;20264;-95
2022/03/16 09:42:38;;;;;;;19.73;13.35;;;12.40;99.90;;;;;;4062910;29;20252;-95
2022/03/16 09:44:41;;;;;;;20.95;12.90;;;12.30;99.90;;;;;;4078494;29;20223;-95
2022/03/16 09:46:54;;;;;;;20.08;13.15;;;12.30;99.90;;;;;;4077630;29;20259;-96
2022/03/16 09:48:59;;;;;;;20.75;12.77;;;12.50;99.90;;;;;;4093032;29;20247;-96
2022/03/16 09:51:25;;;;;;;21.20;12.77;;;12.50;99.90;;;;;;4076857;29;20182;-95
2022/03/16 09:53:36;;;;;;;22.10;13.90;;;12.30;99.90;;;;;;4075804;29;20215;-96
2022/03/16 09:55:40;;;;;;;23.65;13.90;;;12.40;99.90;;;;;;4076202;29;20196;-96
2022/03/16 09:57:41;;;;;;;21.00;14.00;;;12.60;99.90;;;;;;4075056;29;20180;-94
2022/03/16 09:59:52;;;;;;;20.55;12.82;;;12.70;99.90;;;;;;4098029;29;20247;-95
2022/03/16 10:02:09;;;;;;;20.77;13.85;;;12.70;99.90;;;;;;4093676;29;20183;-96
2022/03/16 10:04:39;;;;;;;16.98;13.25;;;12.90;99.90;;;;;;4078237;29;20211;-95
2022/03/16 10:06:42;;;;;;;18.88;13.45;;;13.10;99.90;;;;;;4077684;29;20306;-96
2022/03/16 10:13:54;;;;;;;18.05;12.52;;;13.90;99.90;;;;;;4095824;29;20187;-96
2022/03/16 10:16:10;;;;;;;21.40;13.45;;;13.90;99.90;;;;;;4079078;29;20200;-95
2022/03/16 10:18:26;;;;;;;18.60;12.93;;;14.20;99.90;;;;;;4081207;29;20617;-95
2022/03/16 10:21:14;;;;;;;20.02;12.75;;;14.30;99.90;;;;;;4095605;29;20206;-96
2022/03/16 10:23:50;;;;;;;19.23;12.80;;;13.90;99.90;;;;;;4093110;29;20222;-95
2022/03/16 10:26:22;;;;;;;21.55;12.82;;;13.50;99.90;;;;;;4097620;29;20219;-95
2022/03/16 10:28:37;;;;;;;18.30;11.70;;;13.00;99.90;;;;;;4084464;29;20186;-95
2022/03/16 10:31:26;;;;;;;20.92;12.80;;;13.00;99.90;;;;;;4099066;29;20263;-96
2022/03/16 10:33:32;;;;;;;21.95;13.93;;;13.00;99.90;;;;;;4098572;29;20183;-96
2022/03/16 10:36:01;;;;;;;20.30;13.35;;;13.20;99.90;;;;;;4096946;29;20192;-96
2022/03/16 10:38:32;;;;;;;18.38;13.00;;;13.80;99.90;;;;;;4094684;29;20187;-96
2022/03/16 10:40:42;;;;;;;22.90;13.90;;;13.60;99.90;;;;;;4081206;29;20653;-96
2022/03/16 10:47:54;;;;;;;20.95;12.63;;;13.60;99.90;;;;;;4097140;29;20190;-96
2022/03/16 10:53:01;;;;;;;19.48;12.65;;;13.90;99.90;;;;;;4088437;29;20195;-96
2022/03/16 10:55:23;;;;;;;28.48;13.27;;;14.00;99.90;;;;;;4083498;29;20168;-96
2022/03/16 10:57:40;;;;;;;18.48;12.70;;;14.10;99.90;;;;;;4081109;29;20196;-95
2022/03/16 11:00:20;;;;;;;;;;;;;;;;;;;;;
2022/03/16 11:03:03;;;;;;;23.27;13.38;;;14.30;99.90;;;;;;4099113;29;20180;-95
2022/03/16 11:05:43;;;;;;;23.23;13.30;;;14.50;99.90;;;;;;4098651;29;20243;-95
2022/03/16 11:09:01;;;;;;;;;;;;;;;;;;;;;
2022/03/16 11:14:50;;;;;;;22.67;12.70;;;14.70;99.90;;;;;;4101820;29;20211;-96
2022/03/16 11:17:20;;;;;;;22.05;13.02;;;14.30;99.90;;;;;;4101819;28;20187;-95
2022/03/16 11:25:48;;;;;;;;;;;;;;;;;;;;;
2022/03/16 11:28:07;;;;;;;24.58;12.70;;;13.90;99.90;;;;;;4087502;29;20183;-92
2022/03/16 11:30:28;;;;;;;22.90;12.88;;;14.00;99.90;;;;;;4072380;29;20192;-91
2022/03/16 11:32:39;;;;;;;24.67;13.10;;;14.30;99.90;;;;;;4091200;29;20180;-92
2022/03/16 11:34:47;;;;;;;22.33;13.10;;;14.20;99.90;;;;;;4077532;29;20180;-92